TimeCST,TemperatureF,Dew PointF,Humidity,Sea Level PressureIn,VisibilityMPH,Wind Direction,Wind SpeedMPH,Gust SpeedMPH,PrecipitationIn,Events,Conditions,WindDirDegrees,DateUTC
12:53 AM,37.9,28.0,68,30.29,10.0,North,13.8,-,N/A,,Clear,350,2013-01-17 06:53:00
1:53 AM,37.0,28.0,70,30.32,10.0,North,11.5,-,N/A,,Clear,350,2013-01-17 07:53:00
2:53 AM,35.6,26.6,70,30.33,10.0,North,10.4,-,N/A,,Clear,350,2013-01-17 08:53:00
3:53 AM,33.1,27.0,78,30.38,10.0,NNW,9.2,-,N/A,,Clear,340,2013-01-17 09:53:00
4:53 AM,33.1,27.0,78,30.39,10.0,NNW,10.4,-,N/A,,Clear,340,2013-01-17 10:53:00
5:53 AM,32.0,26.1,79,30.42,10.0,NNW,8.1,-,N/A,,Clear,340,2013-01-17 11:53:00
6:53 AM,30.0,26.1,85,30.45,10.0,NNW,9.2,-,N/A,,Clear,330,2013-01-17 12:53:00
7:53 AM,28.9,25.0,85,30.47,10.0,NNW,9.2,-,N/A,,Clear,330,2013-01-17 13:53:00
8:53 AM,34.0,27.0,75,30.50,10.0,NNW,9.2,-,N/A,,Clear,330,2013-01-17 14:53:00
9:53 AM,39.9,28.9,65,30.53,10.0,North,6.9,-,N/A,,Clear,350,2013-01-17 15:53:00
10:53 AM,44.1,30.9,60,30.53,10.0,North,6.9,-,N/A,,Clear,10,2013-01-17 16:53:00
11:53 AM,48.0,30.9,52,30.51,10.0,NW,5.8,-,N/A,,Clear,320,2013-01-17 17:53:00
12:53 PM,51.1,30.0,44,30.47,10.0,Variable,3.5,-,N/A,,Clear,0,2013-01-17 18:53:00
1:53 PM,54.0,28.9,38,30.45,10.0,NW,4.6,-,N/A,,Clear,310,2013-01-17 19:53:00
2:53 PM,54.0,28.0,37,30.43,10.0,Calm,Calm,-,N/A,,Clear,0,2013-01-17 20:53:00
3:53 PM,55.0,28.9,37,30.44,10.0,WNW,3.5,-,N/A,,Partly Cloudy,300,2013-01-17 21:53:00
4:53 PM,53.1,28.9,40,30.45,10.0,SSW,3.5,-,N/A,,Partly Cloudy,210,2013-01-17 22:53:00
5:53 PM,45.0,28.0,52,30.46,10.0,South,4.6,-,N/A,,Clear,170,2013-01-17 23:53:00
6:53 PM,43.0,28.0,56,30.46,10.0,SSE,6.9,-,N/A,,Clear,150,2013-01-18 00:53:00
7:53 PM,37.0,27.0,67,30.47,10.0,North,-9999.0,-,N/A,,Clear,0,2013-01-18 01:53:00
8:53 PM,34.0,26.1,73,30.47,10.0,South,8.1,-,N/A,,Clear,190,2013-01-18 02:53:00
9:53 PM,33.1,27.0,78,30.45,10.0,South,8.1,-,N/A,,Clear,180,2013-01-18 03:53:00
10:53 PM,30.9,25.0,79,30.44,10.0,South,9.2,-,N/A,,Clear,180,2013-01-18 04:53:00
11:53 PM,32.0,26.1,79,30.43,10.0,South,6.9,-,N/A,,Clear,180,2013-01-18 05:53:00